sensor_id;sensor_type;location;lat;lon;timestamp;P1;durP1;ratioP1;P2;durP2;ratioP2
44366;SDS011;30086;57.660;12.000;2023-07-02T00:01:45;9.30;;;3.25;;
44366;SDS011;30086;57.660;12.000;2023-07-02T00:04:12;8.68;;;2.15;;
44366;SDS011;30086;57.660;12.000;2023-07-02T00:06:47;6.95;;;2.08;;
44366;SDS011;30086;57.660;12.000;2023-07-02T00:09:14;9.48;;;2.42;;
44366;SDS011;30086;57.660;12.000;2023-07-02T00:11:41;9.30;;;2.45;;
44366;SDS011;30086;57.660;12.000;2023-07-02T00:14:10;7.90;;;2.72;;
44366;SDS011;30086;57.660;12.000;2023-07-02T00:16:38;4.82;;;1.77;;
44366;SDS011;30086;57.660;12.000;2023-07-02T00:19:04;8.38;;;2.13;;
44366;SDS011;30086;57.660;12.000;2023-07-02T00:21:30;8.65;;;2.40;;
44366;SDS011;30086;57.660;12.000;2023-07-02T00:23:58;8.23;;;2.53;;
44366;SDS011;30086;57.660;12.000;2023-07-02T00:26:24;9.32;;;2.47;;
44366;SDS011;30086;57.660;12.000;2023-07-02T00:28:53;10.82;;;3.05;;
44366;SDS011;30086;57.660;12.000;2023-07-02T00:31:19;9.00;;;2.53;;
44366;SDS011;30086;57.660;12.000;2023-07-02T00:33:45;13.10;;;2.33;;
44366;SDS011;30086;57.660;12.000;2023-07-02T00:36:12;12.55;;;2.63;;
44366;SDS011;30086;57.660;12.000;2023-07-02T00:38:43;11.25;;;2.30;;
44366;SDS011;30086;57.660;12.000;2023-07-02T00:41:10;7.10;;;2.35;;
44366;SDS011;30086;57.660;12.000;2023-07-02T00:43:36;12.35;;;2.30;;
44366;SDS011;30086;57.660;12.000;2023-07-02T00:46:04;9.70;;;2.35;;
44366;SDS011;30086;57.660;12.000;2023-07-02T00:48:30;11.63;;;1.95;;
44366;SDS011;30086;57.660;12.000;2023-07-02T00:50:56;11.65;;;3.13;;
44366;SDS011;30086;57.660;12.000;2023-07-02T00:53:22;13.30;;;2.72;;
44366;SDS011;30086;57.660;12.000;2023-07-02T00:55:48;13.85;;;2.20;;
44366;SDS011;30086;57.660;12.000;2023-07-02T00:58:14;12.32;;;2.95;;
44366;SDS011;30086;57.660;12.000;2023-07-02T01:00:41;9.35;;;2.78;;
44366;SDS011;30086;57.660;12.000;2023-07-02T01:03:07;12.30;;;2.53;;
44366;SDS011;30086;57.660;12.000;2023-07-02T01:05:33;9.68;;;1.88;;
44366;SDS011;30086;57.660;12.000;2023-07-02T01:08:03;7.25;;;2.17;;
44366;SDS011;30086;57.660;12.000;2023-07-02T01:10:29;11.57;;;2.88;;
44366;SDS011;30086;57.660;12.000;2023-07-02T01:12:57;15.65;;;2.28;;
44366;SDS011;30086;57.660;12.000;2023-07-02T01:15:25;11.65;;;2.17;;
44366;SDS011;30086;57.660;12.000;2023-07-02T01:17:51;11.15;;;2.30;;
44366;SDS011;30086;57.660;12.000;2023-07-02T01:20:17;8.90;;;2.15;;
44366;SDS011;30086;57.660;12.000;2023-07-02T01:22:45;9.88;;;2.63;;
44366;SDS011;30086;57.660;12.000;2023-07-02T01:25:11;7.93;;;2.65;;
44366;SDS011;30086;57.660;12.000;2023-07-02T01:27:37;12.27;;;2.60;;
44366;SDS011;30086;57.660;12.000;2023-07-02T01:30:04;13.82;;;2.55;;
44366;SDS011;30086;57.660;12.000;2023-07-02T01:32:31;10.77;;;2.60;;
44366;SDS011;30086;57.660;12.000;2023-07-02T01:34:57;8.07;;;1.83;;
44366;SDS011;30086;57.660;12.000;2023-07-02T01:37:23;8.20;;;1.95;;
44366;SDS011;30086;57.660;12.000;2023-07-02T01:39:50;11.48;;;2.53;;
44366;SDS011;30086;57.660;12.000;2023-07-02T01:42:17;12.60;;;2.53;;
44366;SDS011;30086;57.660;12.000;2023-07-02T01:44:45;13.10;;;2.75;;
44366;SDS011;30086;57.660;12.000;2023-07-02T01:47:12;13.30;;;2.97;;
44366;SDS011;30086;57.660;12.000;2023-07-02T01:49:39;13.90;;;3.65;;
44366;SDS011;30086;57.660;12.000;2023-07-02T01:52:05;18.00;;;3.45;;
44366;SDS011;30086;57.660;12.000;2023-07-02T01:54:32;12.68;;;3.58;;
44366;SDS011;30086;57.660;12.000;2023-07-02T01:56:58;21.25;;;3.67;;
44366;SDS011;30086;57.660;12.000;2023-07-02T01:59:24;17.27;;;3.83;;
44366;SDS011;30086;57.660;12.000;2023-07-02T02:01:51;10.50;;;2.67;;
44366;SDS011;30086;57.660;12.000;2023-07-02T02:04:17;11.70;;;3.55;;
44366;SDS011;30086;57.660;12.000;2023-07-02T02:06:43;16.40;;;3.95;;
44366;SDS011;30086;57.660;12.000;2023-07-02T02:09:09;20.15;;;6.00;;
44366;SDS011;30086;57.660;12.000;2023-07-02T02:11:37;20.30;;;5.63;;
44366;SDS011;30086;57.660;12.000;2023-07-02T02:14:20;15.55;;;4.93;;
44366;SDS011;30086;57.660;12.000;2023-07-02T02:16:47;13.48;;;4.50;;
44366;SDS011;30086;57.660;12.000;2023-07-02T02:19:13;12.75;;;4.10;;
44366;SDS011;30086;57.660;12.000;2023-07-02T02:21:41;9.50;;;3.75;;
44366;SDS011;30086;57.660;12.000;2023-07-02T02:24:07;9.07;;;3.05;;
44366;SDS011;30086;57.660;12.000;2023-07-02T02:26:33;8.38;;;4.68;;
44366;SDS011;30086;57.660;12.000;2023-07-02T02:29:00;10.02;;;3.88;;
44366;SDS011;30086;57.660;12.000;2023-07-02T02:31:26;9.15;;;3.30;;
44366;SDS011;30086;57.660;12.000;2023-07-02T02:33:53;5.97;;;3.33;;
44366;SDS011;30086;57.660;12.000;2023-07-02T02:36:19;9.52;;;4.07;;
44366;SDS011;30086;57.660;12.000;2023-07-02T02:38:45;5.80;;;3.40;;
44366;SDS011;30086;57.660;12.000;2023-07-02T02:41:11;7.82;;;3.50;;
44366;SDS011;30086;57.660;12.000;2023-07-02T02:43:40;4.68;;;2.70;;
44366;SDS011;30086;57.660;12.000;2023-07-02T02:46:07;7.18;;;3.20;;
44366;SDS011;30086;57.660;12.000;2023-07-02T02:48:33;9.45;;;3.78;;
44366;SDS011;30086;57.660;12.000;2023-07-02T02:50:59;9.20;;;4.13;;
44366;SDS011;30086;57.660;12.000;2023-07-02T02:53:25;13.68;;;5.13;;
44366;SDS011;30086;57.660;12.000;2023-07-02T02:55:51;13.70;;;4.18;;
44366;SDS011;30086;57.660;12.000;2023-07-02T02:58:18;11.40;;;3.78;;
44366;SDS011;30086;57.660;12.000;2023-07-02T03:00:44;13.88;;;3.85;;
44366;SDS011;30086;57.660;12.000;2023-07-02T03:03:12;8.13;;;3.30;;
44366;SDS011;30086;57.660;12.000;2023-07-02T03:05:38;12.15;;;4.22;;
44366;SDS011;30086;57.660;12.000;2023-07-02T03:08:05;13.07;;;4.20;;
44366;SDS011;30086;57.660;12.000;2023-07-02T03:10:31;14.48;;;3.50;;
44366;SDS011;30086;57.660;12.000;2023-07-02T03:12:57;13.95;;;4.07;;
44366;SDS011;30086;57.660;12.000;2023-07-02T03:15:23;11.20;;;3.03;;
44366;SDS011;30086;57.660;12.000;2023-07-02T03:17:49;16.35;;;3.67;;
44366;SDS011;30086;57.660;12.000;2023-07-02T03:20:16;13.48;;;3.30;;
44366;SDS011;30086;57.660;12.000;2023-07-02T03:22:42;8.98;;;2.65;;
44366;SDS011;30086;57.660;12.000;2023-07-02T03:25:08;14.10;;;3.50;;
44366;SDS011;30086;57.660;12.000;2023-07-02T03:27:35;8.65;;;2.88;;
44366;SDS011;30086;57.660;12.000;2023-07-02T03:30:01;16.08;;;4.22;;
44366;SDS011;30086;57.660;12.000;2023-07-02T03:32:28;10.07;;;3.60;;
44366;SDS011;30086;57.660;12.000;2023-07-02T03:34:54;12.35;;;2.78;;
44366;SDS011;30086;57.660;12.000;2023-07-02T03:37:20;10.82;;;2.50;;
44366;SDS011;30086;57.660;12.000;2023-07-02T03:39:46;10.98;;;3.00;;
44366;SDS011;30086;57.660;12.000;2023-07-02T03:42:12;6.88;;;2.58;;
44366;SDS011;30086;57.660;12.000;2023-07-02T03:44:38;10.88;;;2.20;;
44366;SDS011;30086;57.660;12.000;2023-07-02T03:47:05;10.07;;;3.55;;
44366;SDS011;30086;57.660;12.000;2023-07-02T03:49:33;11.35;;;2.88;;
44366;SDS011;30086;57.660;12.000;2023-07-02T03:51:59;13.93;;;2.95;;
44366;SDS011;30086;57.660;12.000;2023-07-02T03:54:25;10.25;;;2.53;;
44366;SDS011;30086;57.660;12.000;2023-07-02T03:56:51;9.45;;;2.63;;
44366;SDS011;30086;57.660;12.000;2023-07-02T03:59:17;10.02;;;2.70;;
44366;SDS011;30086;57.660;12.000;2023-07-02T04:01:43;6.70;;;2.35;;
44366;SDS011;30086;57.660;12.000;2023-07-02T04:04:09;7.55;;;2.20;;
44366;SDS011;30086;57.660;12.000;2023-07-02T04:06:36;9.65;;;2.15;;
44366;SDS011;30086;57.660;12.000;2023-07-02T04:09:02;10.50;;;1.90;;
44366;SDS011;30086;57.660;12.000;2023-07-02T04:11:29;9.90;;;1.80;;
44366;SDS011;30086;57.660;12.000;2023-07-02T04:13:55;4.47;;;1.98;;
44366;SDS011;30086;57.660;12.000;2023-07-02T04:16:21;10.68;;;2.30;;
44366;SDS011;30086;57.660;12.000;2023-07-02T04:18:47;13.65;;;2.55;;
44366;SDS011;30086;57.660;12.000;2023-07-02T04:21:14;10.00;;;1.73;;
44366;SDS011;30086;57.660;12.000;2023-07-02T04:23:40;10.95;;;3.05;;
44366;SDS011;30086;57.660;12.000;2023-07-02T04:26:06;10.35;;;2.03;;
44366;SDS011;30086;57.660;12.000;2023-07-02T04:28:32;8.90;;;1.85;;
44366;SDS011;30086;57.660;12.000;2023-07-02T04:30:58;7.88;;;2.03;;
44366;SDS011;30086;57.660;12.000;2023-07-02T04:33:24;6.97;;;1.88;;
44366;SDS011;30086;57.660;12.000;2023-07-02T04:35:50;11.18;;;3.10;;
44366;SDS011;30086;57.660;12.000;2023-07-02T04:38:16;9.95;;;2.58;;
44366;SDS011;30086;57.660;12.000;2023-07-02T04:40:44;13.95;;;3.08;;
44366;SDS011;30086;57.660;12.000;2023-07-02T04:43:10;12.57;;;3.03;;
44366;SDS011;30086;57.660;12.000;2023-07-02T04:45:37;12.00;;;3.45;;
44366;SDS011;30086;57.660;12.000;2023-07-02T04:48:04;14.00;;;3.78;;
44366;SDS011;30086;57.660;12.000;2023-07-02T04:50:30;16.67;;;3.40;;
44366;SDS011;30086;57.660;12.000;2023-07-02T04:53:06;17.80;;;2.60;;
44366;SDS011;30086;57.660;12.000;2023-07-02T04:55:32;13.10;;;3.60;;
44366;SDS011;30086;57.660;12.000;2023-07-02T04:57:58;6.43;;;2.40;;
44366;SDS011;30086;57.660;12.000;2023-07-02T05:00:26;16.05;;;4.20;;
44366;SDS011;30086;57.660;12.000;2023-07-02T05:02:52;15.45;;;3.70;;
44366;SDS011;30086;57.660;12.000;2023-07-02T05:05:18;19.30;;;2.55;;
44366;SDS011;30086;57.660;12.000;2023-07-02T05:07:44;15.82;;;4.28;;
44366;SDS011;30086;57.660;12.000;2023-07-02T05:10:11;12.15;;;2.35;;
44366;SDS011;30086;57.660;12.000;2023-07-02T05:12:38;8.73;;;2.33;;
44366;SDS011;30086;57.660;12.000;2023-07-02T05:15:04;20.35;;;4.13;;
44366;SDS011;30086;57.660;12.000;2023-07-02T05:17:30;16.08;;;3.35;;
44366;SDS011;30086;57.660;12.000;2023-07-02T05:19:59;10.57;;;2.45;;
44366;SDS011;30086;57.660;12.000;2023-07-02T05:22:25;12.57;;;3.35;;
44366;SDS011;30086;57.660;12.000;2023-07-02T05:24:52;12.35;;;3.50;;
44366;SDS011;30086;57.660;12.000;2023-07-02T05:27:18;15.80;;;3.88;;
44366;SDS011;30086;57.660;12.000;2023-07-02T05:29:44;5.70;;;1.75;;
44366;SDS011;30086;57.660;12.000;2023-07-02T05:32:11;12.73;;;3.20;;
44366;SDS011;30086;57.660;12.000;2023-07-02T05:34:37;9.85;;;2.20;;
44366;SDS011;30086;57.660;12.000;2023-07-02T05:37:03;17.80;;;3.92;;
44366;SDS011;30086;57.660;12.000;2023-07-02T05:39:33;13.63;;;2.97;;
44366;SDS011;30086;57.660;12.000;2023-07-02T05:41:59;18.70;;;4.35;;
44366;SDS011;30086;57.660;12.000;2023-07-02T05:44:26;20.83;;;4.63;;
44366;SDS011;30086;57.660;12.000;2023-07-02T05:46:56;15.70;;;4.50;;
44366;SDS011;30086;57.660;12.000;2023-07-02T05:49:23;11.77;;;2.80;;
44366;SDS011;30086;57.660;12.000;2023-07-02T05:52:03;20.40;;;4.30;;
44366;SDS011;30086;57.660;12.000;2023-07-02T05:54:56;16.30;;;2.88;;
44366;SDS011;30086;57.660;12.000;2023-07-02T05:57:22;21.33;;;5.07;;
44366;SDS011;30086;57.660;12.000;2023-07-02T05:59:50;20.42;;;3.85;;
44366;SDS011;30086;57.660;12.000;2023-07-02T06:02:16;16.02;;;4.00;;
44366;SDS011;30086;57.660;12.000;2023-07-02T06:04:42;10.05;;;2.00;;
44366;SDS011;30086;57.660;12.000;2023-07-02T06:07:08;14.43;;;4.90;;
44366;SDS011;30086;57.660;12.000;2023-07-02T06:09:34;18.33;;;4.40;;
44366;SDS011;30086;57.660;12.000;2023-07-02T06:12:00;17.90;;;4.32;;
44366;SDS011;30086;57.660;12.000;2023-07-02T06:14:29;18.67;;;4.18;;
44366;SDS011;30086;57.660;12.000;2023-07-02T06:16:56;24.23;;;5.07;;
44366;SDS011;30086;57.660;12.000;2023-07-02T06:19:24;20.50;;;5.57;;
44366;SDS011;30086;57.660;12.000;2023-07-02T06:21:50;18.05;;;3.65;;
44366;SDS011;30086;57.660;12.000;2023-07-02T06:24:17;15.52;;;3.40;;
44366;SDS011;30086;57.660;12.000;2023-07-02T06:26:43;21.85;;;4.97;;
44366;SDS011;30086;57.660;12.000;2023-07-02T06:29:09;26.35;;;3.70;;
44366;SDS011;30086;57.660;12.000;2023-07-02T06:31:35;20.27;;;4.03;;
44366;SDS011;30086;57.660;12.000;2023-07-02T06:34:01;11.05;;;3.03;;
44366;SDS011;30086;57.660;12.000;2023-07-02T06:36:30;12.55;;;3.90;;
44366;SDS011;30086;57.660;12.000;2023-07-02T06:38:56;13.52;;;3.13;;
44366;SDS011;30086;57.660;12.000;2023-07-02T06:41:22;29.67;;;3.95;;
44366;SDS011;30086;57.660;12.000;2023-07-02T06:43:48;18.35;;;4.20;;
44366;SDS011;30086;57.660;12.000;2023-07-02T06:46:14;11.85;;;2.30;;
44366;SDS011;30086;57.660;12.000;2023-07-02T06:48:42;13.60;;;4.00;;
44366;SDS011;30086;57.660;12.000;2023-07-02T06:51:08;10.52;;;3.25;;
44366;SDS011;30086;57.660;12.000;2023-07-02T06:53:37;11.90;;;3.30;;
44366;SDS011;30086;57.660;12.000;2023-07-02T06:56:03;11.23;;;3.72;;
44366;SDS011;30086;57.660;12.000;2023-07-02T06:58:30;15.25;;;2.83;;
44366;SDS011;30086;57.660;12.000;2023-07-02T07:00:56;16.17;;;4.90;;
44366;SDS011;30086;57.660;12.000;2023-07-02T07:03:22;12.13;;;3.95;;
44366;SDS011;30086;57.660;12.000;2023-07-02T07:05:50;15.85;;;3.75;;
44366;SDS011;30086;57.660;12.000;2023-07-02T07:08:16;17.63;;;4.20;;
44366;SDS011;30086;57.660;12.000;2023-07-02T07:10:42;15.93;;;3.83;;
44366;SDS011;30086;57.660;12.000;2023-07-02T07:13:11;15.10;;;3.92;;
44366;SDS011;30086;57.660;12.000;2023-07-02T07:15:38;16.15;;;4.80;;
44366;SDS011;30086;57.660;12.000;2023-07-02T07:18:04;14.98;;;3.58;;
44366;SDS011;30086;57.660;12.000;2023-07-02T07:20:30;18.08;;;5.13;;
44366;SDS011;30086;57.660;12.000;2023-07-02T07:22:56;13.73;;;4.32;;
44366;SDS011;30086;57.660;12.000;2023-07-02T07:25:23;15.02;;;3.95;;
44366;SDS011;30086;57.660;12.000;2023-07-02T07:27:49;15.02;;;3.33;;
44366;SDS011;30086;57.660;12.000;2023-07-02T07:30:16;20.90;;;3.17;;
44366;SDS011;30086;57.660;12.000;2023-07-02T07:32:47;15.60;;;3.65;;
44366;SDS011;30086;57.660;12.000;2023-07-02T07:35:13;14.60;;;3.15;;
44366;SDS011;30086;57.660;12.000;2023-07-02T07:37:40;13.98;;;3.38;;
44366;SDS011;30086;57.660;12.000;2023-07-02T07:40:07;14.93;;;3.70;;
44366;SDS011;30086;57.660;12.000;2023-07-02T07:42:33;14.52;;;3.20;;
44366;SDS011;30086;57.660;12.000;2023-07-02T07:45:02;15.35;;;4.43;;
44366;SDS011;30086;57.660;12.000;2023-07-02T07:47:28;10.60;;;2.58;;
44366;SDS011;30086;57.660;12.000;2023-07-02T07:49:54;9.10;;;3.03;;
44366;SDS011;30086;57.660;12.000;2023-07-02T07:52:21;13.15;;;3.80;;
44366;SDS011;30086;57.660;12.000;2023-07-02T07:54:47;14.45;;;3.92;;
44366;SDS011;30086;57.660;12.000;2023-07-02T07:57:13;12.25;;;3.20;;
44366;SDS011;30086;57.660;12.000;2023-07-02T07:59:43;12.55;;;3.72;;
44366;SDS011;30086;57.660;12.000;2023-07-02T08:02:09;10.35;;;2.72;;
44366;SDS011;30086;57.660;12.000;2023-07-02T08:04:35;14.57;;;3.20;;
44366;SDS011;30086;57.660;12.000;2023-07-02T08:07:01;11.20;;;3.00;;
44366;SDS011;30086;57.660;12.000;2023-07-02T08:09:29;12.75;;;4.10;;
44366;SDS011;30086;57.660;12.000;2023-07-02T08:11:55;17.98;;;3.67;;
44366;SDS011;30086;57.660;12.000;2023-07-02T08:14:21;18.30;;;3.70;;
44366;SDS011;30086;57.660;12.000;2023-07-02T08:16:48;13.80;;;3.28;;
44366;SDS011;30086;57.660;12.000;2023-07-02T08:19:14;15.68;;;3.70;;
44366;SDS011;30086;57.660;12.000;2023-07-02T08:21:44;8.88;;;2.40;;
44366;SDS011;30086;57.660;12.000;2023-07-02T08:24:10;10.85;;;3.40;;
44366;SDS011;30086;57.660;12.000;2023-07-02T08:26:37;16.05;;;4.00;;
44366;SDS011;30086;57.660;12.000;2023-07-02T08:29:08;13.45;;;3.72;;
44366;SDS011;30086;57.660;12.000;2023-07-02T08:31:36;11.68;;;3.22;;
44366;SDS011;30086;57.660;12.000;2023-07-02T08:34:03;9.60;;;2.90;;
44366;SDS011;30086;57.660;12.000;2023-07-02T08:36:30;9.68;;;3.35;;
44366;SDS011;30086;57.660;12.000;2023-07-02T08:38:56;8.18;;;2.85;;
44366;SDS011;30086;57.660;12.000;2023-07-02T08:41:22;20.50;;;3.58;;
44366;SDS011;30086;57.660;12.000;2023-07-02T08:43:50;14.32;;;3.47;;
44366;SDS011;30086;57.660;12.000;2023-07-02T08:46:17;12.52;;;3.78;;
44366;SDS011;30086;57.660;12.000;2023-07-02T08:48:44;13.15;;;3.53;;
44366;SDS011;30086;57.660;12.000;2023-07-02T08:51:10;12.32;;;2.63;;
44366;SDS011;30086;57.660;12.000;2023-07-02T08:53:36;12.23;;;3.17;;
44366;SDS011;30086;57.660;12.000;2023-07-02T08:56:03;8.25;;;2.75;;
44366;SDS011;30086;57.660;12.000;2023-07-02T08:58:30;13.50;;;3.15;;
44366;SDS011;30086;57.660;12.000;2023-07-02T09:03:33;9.80;;;2.95;;
44366;SDS011;30086;57.660;12.000;2023-07-02T09:05:59;13.35;;;3.78;;
44366;SDS011;30086;57.660;12.000;2023-07-02T09:08:27;12.00;;;4.45;;
44366;SDS011;30086;57.660;12.000;2023-07-02T09:10:53;6.78;;;2.40;;
44366;SDS011;30086;57.660;12.000;2023-07-02T09:13:20;12.77;;;2.95;;
44366;SDS011;30086;57.660;12.000;2023-07-02T09:15:50;12.35;;;2.85;;
44366;SDS011;30086;57.660;12.000;2023-07-02T09:18:20;9.55;;;3.83;;
44366;SDS011;30086;57.660;12.000;2023-07-02T09:20:50;7.93;;;3.00;;
44366;SDS011;30086;57.660;12.000;2023-07-02T09:23:20;18.80;;;2.85;;
44366;SDS011;30086;57.660;12.000;2023-07-02T09:25:46;9.85;;;2.65;;
44366;SDS011;30086;57.660;12.000;2023-07-02T09:30:54;6.38;;;2.95;;
44366;SDS011;30086;57.660;12.000;2023-07-02T09:33:21;13.00;;;2.55;;
44366;SDS011;30086;57.660;12.000;2023-07-02T09:35:48;7.43;;;3.00;;
44366;SDS011;30086;57.660;12.000;2023-07-02T09:38:35;11.07;;;3.25;;
44366;SDS011;30086;57.660;12.000;2023-07-02T09:41:11;16.13;;;3.67;;
44366;SDS011;30086;57.660;12.000;2023-07-02T09:43:41;10.23;;;2.42;;
44366;SDS011;30086;57.660;12.000;2023-07-02T09:46:07;8.07;;;2.53;;
44366;SDS011;30086;57.660;12.000;2023-07-02T09:48:33;11.00;;;2.25;;
44366;SDS011;30086;57.660;12.000;2023-07-02T09:51:04;5.78;;;2.35;;
44366;SDS011;30086;57.660;12.000;2023-07-02T09:53:30;6.45;;;1.65;;
44366;SDS011;30086;57.660;12.000;2023-07-02T09:55:56;7.78;;;2.30;;
44366;SDS011;30086;57.660;12.000;2023-07-02T09:58:23;11.05;;;2.47;;
44366;SDS011;30086;57.660;12.000;2023-07-02T10:00:49;8.45;;;2.15;;
44366;SDS011;30086;57.660;12.000;2023-07-02T10:03:27;5.53;;;1.70;;
44366;SDS011;30086;57.660;12.000;2023-07-02T10:06:01;10.13;;;1.92;;
44366;SDS011;30086;57.660;12.000;2023-07-02T10:11:11;5.70;;;2.17;;
44366;SDS011;30086;57.660;12.000;2023-07-02T10:13:39;6.78;;;2.10;;
44366;SDS011;30086;57.660;12.000;2023-07-02T10:16:06;4.70;;;1.90;;
44366;SDS011;30086;57.660;12.000;2023-07-02T10:18:34;9.10;;;2.45;;
44366;SDS011;30086;57.660;12.000;2023-07-02T10:21:12;6.35;;;2.75;;
44366;SDS011;30086;57.660;12.000;2023-07-02T10:23:38;7.97;;;2.05;;
44366;SDS011;30086;57.660;12.000;2023-07-02T10:28:38;6.95;;;2.03;;
44366;SDS011;30086;57.660;12.000;2023-07-02T10:31:04;9.25;;;2.15;;
44366;SDS011;30086;57.660;12.000;2023-07-02T10:33:30;7.97;;;2.20;;
44366;SDS011;30086;57.660;12.000;2023-07-02T10:35:57;10.57;;;9.13;;
44366;SDS011;30086;57.660;12.000;2023-07-02T10:38:24;7.60;;;2.70;;
44366;SDS011;30086;57.660;12.000;2023-07-02T10:40:55;6.05;;;2.60;;
44366;SDS011;30086;57.660;12.000;2023-07-02T10:43:26;7.30;;;2.25;;
44366;SDS011;30086;57.660;12.000;2023-07-02T10:45:53;6.65;;;2.22;;
44366;SDS011;30086;57.660;12.000;2023-07-02T10:48:20;7.18;;;2.47;;
44366;SDS011;30086;57.660;12.000;2023-07-02T10:50:46;9.02;;;2.40;;
44366;SDS011;30086;57.660;12.000;2023-07-02T10:53:17;7.97;;;2.00;;
44366;SDS011;30086;57.660;12.000;2023-07-02T10:55:43;9.35;;;2.50;;
44366;SDS011;30086;57.660;12.000;2023-07-02T10:58:10;7.47;;;2.17;;
44366;SDS011;30086;57.660;12.000;2023-07-02T11:00:46;7.85;;;2.17;;
44366;SDS011;30086;57.660;12.000;2023-07-02T11:03:20;7.93;;;2.03;;
44366;SDS011;30086;57.660;12.000;2023-07-02T11:05:49;9.43;;;2.03;;
44366;SDS011;30086;57.660;12.000;2023-07-02T11:08:15;5.88;;;2.60;;
44366;SDS011;30086;57.660;12.000;2023-07-02T11:10:42;6.45;;;2.40;;
44366;SDS011;30086;57.660;12.000;2023-07-02T11:15:37;7.72;;;2.50;;
44366;SDS011;30086;57.660;12.000;2023-07-02T11:18:13;6.70;;;2.78;;
44366;SDS011;30086;57.660;12.000;2023-07-02T11:20:41;5.80;;;2.30;;
44366;SDS011;30086;57.660;12.000;2023-07-02T11:23:22;3.97;;;1.92;;
44366;SDS011;30086;57.660;12.000;2023-07-02T11:25:55;2.75;;;1.50;;
44366;SDS011;30086;57.660;12.000;2023-07-02T11:28:22;4.40;;;1.30;;
44366;SDS011;30086;57.660;12.000;2023-07-02T11:30:48;4.22;;;1.73;;
44366;SDS011;30086;57.660;12.000;2023-07-02T11:33:15;4.63;;;1.58;;
44366;SDS011;30086;57.660;12.000;2023-07-02T11:35:41;7.78;;;2.22;;
44366;SDS011;30086;57.660;12.000;2023-07-02T11:38:08;9.98;;;2.45;;
44366;SDS011;30086;57.660;12.000;2023-07-02T11:40:38;2.70;;;1.58;;
44366;SDS011;30086;57.660;12.000;2023-07-02T11:43:05;9.05;;;2.92;;
44366;SDS011;30086;57.660;12.000;2023-07-02T11:45:31;10.43;;;2.92;;
44366;SDS011;30086;57.660;12.000;2023-07-02T11:47:57;5.00;;;1.80;;
44366;SDS011;30086;57.660;12.000;2023-07-02T11:50:23;8.52;;;2.83;;
44366;SDS011;30086;57.660;12.000;2023-07-02T11:52:50;12.55;;;2.95;;
44366;SDS011;30086;57.660;12.000;2023-07-02T11:55:16;6.85;;;1.65;;
44366;SDS011;30086;57.660;12.000;2023-07-02T11:57:42;12.77;;;3.22;;
44366;SDS011;30086;57.660;12.000;2023-07-02T12:00:08;6.50;;;1.95;;
44366;SDS011;30086;57.660;12.000;2023-07-02T12:02:36;10.13;;;2.15;;
44366;SDS011;30086;57.660;12.000;2023-07-02T12:05:02;10.50;;;3.00;;
44366;SDS011;30086;57.660;12.000;2023-07-02T12:07:30;5.53;;;1.98;;
44366;SDS011;30086;57.660;12.000;2023-07-02T12:09:57;20.20;;;3.60;;
44366;SDS011;30086;57.660;12.000;2023-07-02T12:12:23;0.00;;;0.00;;
44366;SDS011;30086;57.660;12.000;2023-07-02T12:14:49;5.10;;;1.13;;
44366;SDS011;30086;57.660;12.000;2023-07-02T12:17:15;5.22;;;1.63;;
44366;SDS011;30086;57.660;12.000;2023-07-02T12:19:41;5.03;;;1.30;;
44366;SDS011;30086;57.660;12.000;2023-07-02T12:22:08;8.95;;;1.55;;
44366;SDS011;30086;57.660;12.000;2023-07-02T12:24:35;4.65;;;1.52;;
44366;SDS011;30086;57.660;12.000;2023-07-02T12:27:03;6.00;;;1.80;;
44366;SDS011;30086;57.660;12.000;2023-07-02T12:29:29;9.15;;;2.50;;
44366;SDS011;30086;57.660;12.000;2023-07-02T12:31:55;10.70;;;2.97;;
44366;SDS011;30086;57.660;12.000;2023-07-02T12:34:21;10.10;;;2.88;;
44366;SDS011;30086;57.660;12.000;2023-07-02T12:36:48;12.10;;;3.30;;
44366;SDS011;30086;57.660;12.000;2023-07-02T12:39:14;14.95;;;3.88;;
44366;SDS011;30086;57.660;12.000;2023-07-02T12:41:41;12.20;;;3.60;;
44366;SDS011;30086;57.660;12.000;2023-07-02T12:44:07;16.17;;;4.63;;
44366;SDS011;30086;57.660;12.000;2023-07-02T12:46:33;11.95;;;3.78;;
44366;SDS011;30086;57.660;12.000;2023-07-02T12:48:59;13.52;;;3.30;;
44366;SDS011;30086;57.660;12.000;2023-07-02T12:51:25;9.60;;;3.88;;
44366;SDS011;30086;57.660;12.000;2023-07-02T12:53:51;12.35;;;3.28;;
44366;SDS011;30086;57.660;12.000;2023-07-02T12:56:17;9.10;;;3.13;;
44366;SDS011;30086;57.660;12.000;2023-07-02T12:58:43;17.17;;;3.13;;
44366;SDS011;30086;57.660;12.000;2023-07-02T13:01:10;15.20;;;3.50;;
44366;SDS011;30086;57.660;12.000;2023-07-02T13:03:38;8.57;;;3.95;;
44366;SDS011;30086;57.660;12.000;2023-07-02T13:06:10;15.77;;;4.10;;
44366;SDS011;30086;57.660;12.000;2023-07-02T13:08:37;13.07;;;3.88;;
44366;SDS011;30086;57.660;12.000;2023-07-02T13:11:03;14.23;;;4.10;;
44366;SDS011;30086;57.660;12.000;2023-07-02T13:13:29;13.57;;;3.53;;
44366;SDS011;30086;57.660;12.000;2023-07-02T13:15:56;9.70;;;3.10;;
44366;SDS011;30086;57.660;12.000;2023-07-02T13:18:23;4.70;;;2.15;;
44366;SDS011;30086;57.660;12.000;2023-07-02T13:20:49;7.75;;;2.58;;
44366;SDS011;30086;57.660;12.000;2023-07-02T13:23:15;12.95;;;3.05;;
44366;SDS011;30086;57.660;12.000;2023-07-02T13:25:41;8.38;;;2.97;;
44366;SDS011;30086;57.660;12.000;2023-07-02T13:28:15;7.03;;;2.70;;
44366;SDS011;30086;57.660;12.000;2023-07-02T13:30:41;12.07;;;3.00;;
44366;SDS011;30086;57.660;12.000;2023-07-02T13:33:07;6.03;;;2.10;;
44366;SDS011;30086;57.660;12.000;2023-07-02T13:35:34;5.07;;;2.17;;
44366;SDS011;30086;57.660;12.000;2023-07-02T13:38:02;9.07;;;2.45;;
44366;SDS011;30086;57.660;12.000;2023-07-02T13:40:33;7.72;;;3.30;;
44366;SDS011;30086;57.660;12.000;2023-07-02T13:43:00;9.55;;;3.03;;
44366;SDS011;30086;57.660;12.000;2023-07-02T13:45:33;7.03;;;2.63;;
44366;SDS011;30086;57.660;12.000;2023-07-02T13:48:20;7.38;;;3.92;;
44366;SDS011;30086;57.660;12.000;2023-07-02T13:50:47;7.45;;;2.40;;
44366;SDS011;30086;57.660;12.000;2023-07-02T13:53:33;7.15;;;3.03;;
44366;SDS011;30086;57.660;12.000;2023-07-02T13:56:01;10.90;;;4.18;;
44366;SDS011;30086;57.660;12.000;2023-07-02T14:01:12;9.13;;;3.47;;
44366;SDS011;30086;57.660;12.000;2023-07-02T14:03:38;11.60;;;3.33;;
44366;SDS011;30086;57.660;12.000;2023-07-02T14:06:04;12.35;;;3.78;;
44366;SDS011;30086;57.660;12.000;2023-07-02T14:08:30;14.05;;;4.00;;
44366;SDS011;30086;57.660;12.000;2023-07-02T14:10:56;10.00;;;3.25;;
44366;SDS011;30086;57.660;12.000;2023-07-02T14:13:22;11.32;;;4.30;;
44366;SDS011;30086;57.660;12.000;2023-07-02T14:15:49;8.50;;;2.92;;
44366;SDS011;30086;57.660;12.000;2023-07-02T14:18:16;10.90;;;3.75;;
44366;SDS011;30086;57.660;12.000;2023-07-02T14:20:42;14.68;;;4.93;;
44366;SDS011;30086;57.660;12.000;2023-07-02T14:23:08;8.57;;;2.63;;
44366;SDS011;30086;57.660;12.000;2023-07-02T14:25:35;16.88;;;5.93;;
44366;SDS011;30086;57.660;12.000;2023-07-02T14:28:02;12.95;;;5.72;;
44366;SDS011;30086;57.660;12.000;2023-07-02T14:30:28;13.90;;;5.90;;
44366;SDS011;30086;57.660;12.000;2023-07-02T14:32:54;18.95;;;8.20;;
44366;SDS011;30086;57.660;12.000;2023-07-02T14:35:20;18.83;;;7.18;;
44366;SDS011;30086;57.660;12.000;2023-07-02T14:37:50;19.48;;;7.72;;
44366;SDS011;30086;57.660;12.000;2023-07-02T14:40:17;21.70;;;8.85;;
44366;SDS011;30086;57.660;12.000;2023-07-02T14:42:45;25.15;;;9.05;;